Terminal Aerodrome Forecast
Issued by NWS

Home | Current Version | Previous Version | Text Only | Print | Product List | Glossary On
Versions: 1 2 3 4 5 6 7 8 9 10 11
000
FTUS44 KOUN 191139
TAFGAG
TAF
KGAG 191139Z 1912/2012 22018KT P6SM SCT120 BKN250
     FM191300 34015G25KT P6SM SCT015 BKN100
      TEMPO 1913/1916 BKN009
     FM191900 10012KT P6SM BKN080=

USA.gov is the U.S. government's official web portal to all federal, state and local government web resources and services.